sensor_id;sensor_type;location;lat;lon;timestamp;P1;durP1;ratioP1;P2;durP2;ratioP2
5682;SDS011;2864;49.220;8.654;2022-09-03T00:01:22;3.10;;;1.57;;
5682;SDS011;2864;49.220;8.654;2022-09-03T00:04:00;3.47;;;1.70;;
5682;SDS011;2864;49.220;8.654;2022-09-03T00:06:39;5.80;;;2.23;;
5682;SDS011;2864;49.220;8.654;2022-09-03T00:09:27;1.83;;;1.40;;
5682;SDS011;2864;49.220;8.654;2022-09-03T00:12:21;1.63;;;1.30;;
5682;SDS011;2864;49.220;8.654;2022-09-03T00:14:52;2.30;;;1.70;;
5682;SDS011;2864;49.220;8.654;2022-09-03T00:17:24;2.33;;;1.60;;
5682;SDS011;2864;49.220;8.654;2022-09-03T00:19:59;2.20;;;1.50;;
5682;SDS011;2864;49.220;8.654;2022-09-03T00:22:29;4.30;;;1.83;;
5682;SDS011;2864;49.220;8.654;2022-09-03T00:25:03;2.73;;;1.43;;
5682;SDS011;2864;49.220;8.654;2022-09-03T00:27:32;2.87;;;1.30;;
5682;SDS011;2864;49.220;8.654;2022-09-03T00:32:36;2.23;;;1.50;;
5682;SDS011;2864;49.220;8.654;2022-09-03T00:35:04;1.90;;;1.50;;
5682;SDS011;2864;49.220;8.654;2022-09-03T00:37:35;2.60;;;1.60;;
5682;SDS011;2864;49.220;8.654;2022-09-03T00:40:01;3.37;;;1.67;;
5682;SDS011;2864;49.220;8.654;2022-09-03T00:42:39;1.60;;;1.50;;
5682;SDS011;2864;49.220;8.654;2022-09-03T00:45:39;2.43;;;1.50;;
5682;SDS011;2864;49.220;8.654;2022-09-03T00:48:20;4.70;;;1.80;;
5682;SDS011;2864;49.220;8.654;2022-09-03T01:04:46;1.97;;;1.50;;
5682;SDS011;2864;49.220;8.654;2022-09-03T01:12:38;2.30;;;1.57;;
5682;SDS011;2864;49.220;8.654;2022-09-03T01:15:35;1.90;;;1.60;;
5682;SDS011;2864;49.220;8.654;2022-09-03T01:20:43;2.90;;;1.60;;
5682;SDS011;2864;49.220;8.654;2022-09-03T01:26:20;1.60;;;1.50;;
5682;SDS011;2864;49.220;8.654;2022-09-03T01:37:47;3.20;;;1.70;;
5682;SDS011;2864;49.220;8.654;2022-09-03T01:46:32;2.47;;;1.20;;
5682;SDS011;2864;49.220;8.654;2022-09-03T02:00:32;4.50;;;1.73;;
5682;SDS011;2864;49.220;8.654;2022-09-03T02:03:01;3.63;;;1.63;;
5682;SDS011;2864;49.220;8.654;2022-09-03T02:05:30;3.40;;;1.40;;
5682;SDS011;2864;49.220;8.654;2022-09-03T02:11:18;4.20;;;1.60;;
5682;SDS011;2864;49.220;8.654;2022-09-03T02:13:45;8.03;;;1.50;;
5682;SDS011;2864;49.220;8.654;2022-09-03T02:16:15;2.43;;;1.40;;
5682;SDS011;2864;49.220;8.654;2022-09-03T02:19:00;1.73;;;1.50;;
5682;SDS011;2864;49.220;8.654;2022-09-03T02:21:33;3.90;;;1.60;;
5682;SDS011;2864;49.220;8.654;2022-09-03T02:24:02;2.10;;;1.60;;
5682;SDS011;2864;49.220;8.654;2022-09-03T02:26:29;4.00;;;1.40;;
5682;SDS011;2864;49.220;8.654;2022-09-03T02:28:55;2.27;;;1.57;;
5682;SDS011;2864;49.220;8.654;2022-09-03T02:31:22;3.40;;;1.60;;
5682;SDS011;2864;49.220;8.654;2022-09-03T02:33:48;1.50;;;1.40;;
5682;SDS011;2864;49.220;8.654;2022-09-03T02:36:15;1.60;;;1.50;;
5682;SDS011;2864;49.220;8.654;2022-09-03T02:38:44;2.57;;;1.60;;
5682;SDS011;2864;49.220;8.654;2022-09-03T02:41:10;1.63;;;1.53;;
5682;SDS011;2864;49.220;8.654;2022-09-03T02:46:31;3.90;;;1.50;;
5682;SDS011;2864;49.220;8.654;2022-09-03T02:49:02;2.33;;;1.50;;
5682;SDS011;2864;49.220;8.654;2022-09-03T02:51:31;1.60;;;1.40;;
5682;SDS011;2864;49.220;8.654;2022-09-03T02:53:59;3.93;;;1.30;;
5682;SDS011;2864;49.220;8.654;2022-09-03T02:56:25;1.90;;;1.40;;
5682;SDS011;2864;49.220;8.654;2022-09-03T02:58:52;3.63;;;1.30;;
5682;SDS011;2864;49.220;8.654;2022-09-03T03:01:18;3.80;;;1.40;;
5682;SDS011;2864;49.220;8.654;2022-09-03T03:03:44;3.17;;;1.60;;
5682;SDS011;2864;49.220;8.654;2022-09-03T03:06:10;2.40;;;1.50;;
5682;SDS011;2864;49.220;8.654;2022-09-03T03:08:38;3.00;;;1.40;;
5682;SDS011;2864;49.220;8.654;2022-09-03T03:11:04;3.37;;;1.63;;
5682;SDS011;2864;49.220;8.654;2022-09-03T03:13:31;2.23;;;1.43;;
5682;SDS011;2864;49.220;8.654;2022-09-03T03:15:57;3.30;;;1.50;;
5682;SDS011;2864;49.220;8.654;2022-09-03T03:18:24;1.47;;;1.37;;
5682;SDS011;2864;49.220;8.654;2022-09-03T03:20:50;2.90;;;1.30;;
5682;SDS011;2864;49.220;8.654;2022-09-03T03:23:16;2.57;;;1.43;;
5682;SDS011;2864;49.220;8.654;2022-09-03T03:25:45;5.00;;;1.57;;
5682;SDS011;2864;49.220;8.654;2022-09-03T03:28:11;1.57;;;1.40;;
5682;SDS011;2864;49.220;8.654;2022-09-03T03:30:38;3.13;;;1.57;;
5682;SDS011;2864;49.220;8.654;2022-09-03T03:33:07;2.13;;;1.37;;
5682;SDS011;2864;49.220;8.654;2022-09-03T03:35:34;1.93;;;1.40;;
5682;SDS011;2864;49.220;8.654;2022-09-03T03:38:00;2.10;;;1.50;;
5682;SDS011;2864;49.220;8.654;2022-09-03T03:40:26;1.83;;;1.60;;
5682;SDS011;2864;49.220;8.654;2022-09-03T03:42:52;3.90;;;1.77;;
5682;SDS011;2864;49.220;8.654;2022-09-03T03:45:19;2.00;;;1.50;;
5682;SDS011;2864;49.220;8.654;2022-09-03T03:47:44;2.03;;;1.53;;
5682;SDS011;2864;49.220;8.654;2022-09-03T03:50:10;4.00;;;1.57;;
5682;SDS011;2864;49.220;8.654;2022-09-03T03:52:36;1.77;;;1.50;;
5682;SDS011;2864;49.220;8.654;2022-09-03T03:55:01;1.87;;;1.50;;
5682;SDS011;2864;49.220;8.654;2022-09-03T03:57:28;2.80;;;1.67;;
5682;SDS011;2864;49.220;8.654;2022-09-03T03:59:55;1.83;;;1.50;;
5682;SDS011;2864;49.220;8.654;2022-09-03T04:02:21;3.30;;;1.60;;
5682;SDS011;2864;49.220;8.654;2022-09-03T04:04:47;3.10;;;1.50;;
5682;SDS011;2864;49.220;8.654;2022-09-03T04:07:13;1.30;;;1.20;;
5682;SDS011;2864;49.220;8.654;2022-09-03T04:09:38;2.63;;;1.40;;
5682;SDS011;2864;49.220;8.654;2022-09-03T04:12:04;1.60;;;1.40;;
5682;SDS011;2864;49.220;8.654;2022-09-03T04:14:32;3.03;;;1.40;;
5682;SDS011;2864;49.220;8.654;2022-09-03T04:16:59;2.03;;;1.50;;
5682;SDS011;2864;49.220;8.654;2022-09-03T04:19:26;2.10;;;1.50;;
5682;SDS011;2864;49.220;8.654;2022-09-03T04:21:54;5.40;;;1.40;;
5682;SDS011;2864;49.220;8.654;2022-09-03T04:24:20;2.90;;;1.40;;
5682;SDS011;2864;49.220;8.654;2022-09-03T04:26:45;1.50;;;1.40;;
5682;SDS011;2864;49.220;8.654;2022-09-03T04:29:11;2.83;;;1.50;;
5682;SDS011;2864;49.220;8.654;2022-09-03T04:31:37;2.13;;;1.30;;
5682;SDS011;2864;49.220;8.654;2022-09-03T04:34:03;2.13;;;1.53;;
5682;SDS011;2864;49.220;8.654;2022-09-03T04:36:33;2.37;;;1.30;;
5682;SDS011;2864;49.220;8.654;2022-09-03T04:38:59;5.20;;;1.63;;
5682;SDS011;2864;49.220;8.654;2022-09-03T04:41:29;3.07;;;1.73;;
5682;SDS011;2864;49.220;8.654;2022-09-03T04:43:56;4.43;;;1.57;;
5682;SDS011;2864;49.220;8.654;2022-09-03T04:46:23;1.80;;;1.50;;
5682;SDS011;2864;49.220;8.654;2022-09-03T04:48:51;3.03;;;1.57;;
5682;SDS011;2864;49.220;8.654;2022-09-03T04:51:19;1.73;;;1.53;;
5682;SDS011;2864;49.220;8.654;2022-09-03T04:53:53;1.90;;;1.60;;
5682;SDS011;2864;49.220;8.654;2022-09-03T04:56:25;1.50;;;1.40;;
5682;SDS011;2864;49.220;8.654;2022-09-03T04:58:58;2.30;;;1.53;;
5682;SDS011;2864;49.220;8.654;2022-09-03T05:01:27;3.13;;;1.77;;
5682;SDS011;2864;49.220;8.654;2022-09-03T05:03:55;1.60;;;1.43;;
5682;SDS011;2864;49.220;8.654;2022-09-03T05:06:22;2.80;;;1.60;;
5682;SDS011;2864;49.220;8.654;2022-09-03T05:08:50;2.73;;;1.53;;
5682;SDS011;2864;49.220;8.654;2022-09-03T05:11:17;4.40;;;1.50;;
5682;SDS011;2864;49.220;8.654;2022-09-03T05:13:46;2.87;;;1.70;;
5682;SDS011;2864;49.220;8.654;2022-09-03T05:16:16;1.60;;;1.50;;
5682;SDS011;2864;49.220;8.654;2022-09-03T05:18:43;1.50;;;1.40;;
5682;SDS011;2864;49.220;8.654;2022-09-03T05:21:11;1.80;;;1.60;;
5682;SDS011;2864;49.220;8.654;2022-09-03T05:23:39;5.13;;;1.60;;
5682;SDS011;2864;49.220;8.654;2022-09-03T05:26:08;4.93;;;1.80;;
5682;SDS011;2864;49.220;8.654;2022-09-03T05:28:37;2.17;;;1.70;;
5682;SDS011;2864;49.220;8.654;2022-09-03T05:31:04;3.30;;;1.63;;
5682;SDS011;2864;49.220;8.654;2022-09-03T05:33:33;2.90;;;1.70;;
5682;SDS011;2864;49.220;8.654;2022-09-03T05:36:01;1.97;;;1.60;;
5682;SDS011;2864;49.220;8.654;2022-09-03T05:38:28;1.93;;;1.70;;
5682;SDS011;2864;49.220;8.654;2022-09-03T05:41:01;2.00;;;1.80;;
5682;SDS011;2864;49.220;8.654;2022-09-03T05:43:28;5.50;;;1.70;;
5682;SDS011;2864;49.220;8.654;2022-09-03T05:45:57;3.50;;;1.63;;
5682;SDS011;2864;49.220;8.654;2022-09-03T05:48:28;2.40;;;1.80;;
5682;SDS011;2864;49.220;8.654;2022-09-03T05:53:27;1.60;;;1.50;;
5682;SDS011;2864;49.220;8.654;2022-09-03T05:55:54;2.27;;;1.73;;
5682;SDS011;2864;49.220;8.654;2022-09-03T05:58:31;3.33;;;1.50;;
5682;SDS011;2864;49.220;8.654;2022-09-03T06:00:57;2.33;;;1.60;;
5682;SDS011;2864;49.220;8.654;2022-09-03T06:03:23;4.53;;;1.70;;
5682;SDS011;2864;49.220;8.654;2022-09-03T06:05:52;2.77;;;1.70;;
5682;SDS011;2864;49.220;8.654;2022-09-03T06:08:19;2.67;;;1.80;;
5682;SDS011;2864;49.220;8.654;2022-09-03T06:10:45;3.97;;;1.83;;
5682;SDS011;2864;49.220;8.654;2022-09-03T06:13:11;2.17;;;1.70;;
5682;SDS011;2864;49.220;8.654;2022-09-03T06:15:37;4.00;;;1.90;;
5682;SDS011;2864;49.220;8.654;2022-09-03T06:18:02;3.03;;;1.87;;
5682;SDS011;2864;49.220;8.654;2022-09-03T06:20:28;2.60;;;1.80;;
5682;SDS011;2864;49.220;8.654;2022-09-03T06:22:54;3.60;;;1.93;;
5682;SDS011;2864;49.220;8.654;2022-09-03T06:25:20;3.23;;;1.90;;
5682;SDS011;2864;49.220;8.654;2022-09-03T06:27:46;3.13;;;1.90;;
5682;SDS011;2864;49.220;8.654;2022-09-03T06:30:11;2.00;;;1.80;;
5682;SDS011;2864;49.220;8.654;2022-09-03T06:32:47;3.53;;;1.90;;
5682;SDS011;2864;49.220;8.654;2022-09-03T06:35:18;2.20;;;1.60;;
5682;SDS011;2864;49.220;8.654;2022-09-03T06:37:44;2.13;;;1.77;;
5682;SDS011;2864;49.220;8.654;2022-09-03T06:40:10;3.03;;;1.90;;
5682;SDS011;2864;49.220;8.654;2022-09-03T06:42:44;2.90;;;1.77;;
5682;SDS011;2864;49.220;8.654;2022-09-03T06:45:21;2.00;;;1.90;;
5682;SDS011;2864;49.220;8.654;2022-09-03T06:47:47;2.20;;;2.00;;
5682;SDS011;2864;49.220;8.654;2022-09-03T06:50:12;4.97;;;2.10;;
5682;SDS011;2864;49.220;8.654;2022-09-03T06:52:38;3.70;;;1.80;;
5682;SDS011;2864;49.220;8.654;2022-09-03T06:55:04;4.00;;;2.37;;
5682;SDS011;2864;49.220;8.654;2022-09-03T06:57:29;5.17;;;2.47;;
5682;SDS011;2864;49.220;8.654;2022-09-03T06:59:55;4.23;;;2.20;;
5682;SDS011;2864;49.220;8.654;2022-09-03T07:02:21;2.60;;;1.90;;
5682;SDS011;2864;49.220;8.654;2022-09-03T07:04:47;2.27;;;2.00;;
5682;SDS011;2864;49.220;8.654;2022-09-03T07:07:13;3.90;;;2.17;;
5682;SDS011;2864;49.220;8.654;2022-09-03T07:09:40;5.43;;;2.87;;
5682;SDS011;2864;49.220;8.654;2022-09-03T07:12:05;5.77;;;2.40;;
5682;SDS011;2864;49.220;8.654;2022-09-03T07:14:31;6.70;;;2.30;;
5682;SDS011;2864;49.220;8.654;2022-09-03T07:16:57;5.43;;;3.20;;
5682;SDS011;2864;49.220;8.654;2022-09-03T07:19:23;4.83;;;2.67;;
5682;SDS011;2864;49.220;8.654;2022-09-03T07:21:48;4.93;;;2.90;;
5682;SDS011;2864;49.220;8.654;2022-09-03T07:24:14;11.40;;;6.60;;
5682;SDS011;2864;49.220;8.654;2022-09-03T07:26:40;4.70;;;3.00;;
5682;SDS011;2864;49.220;8.654;2022-09-03T07:29:10;4.53;;;2.70;;
5682;SDS011;2864;49.220;8.654;2022-09-03T07:31:38;5.63;;;2.83;;
5682;SDS011;2864;49.220;8.654;2022-09-03T07:34:05;5.03;;;2.83;;
5682;SDS011;2864;49.220;8.654;2022-09-03T07:36:36;3.03;;;2.73;;
5682;SDS011;2864;49.220;8.654;2022-09-03T07:39:05;3.87;;;2.70;;
5682;SDS011;2864;49.220;8.654;2022-09-03T07:41:31;3.70;;;2.40;;
5682;SDS011;2864;49.220;8.654;2022-09-03T07:43:57;6.90;;;2.60;;
5682;SDS011;2864;49.220;8.654;2022-09-03T07:46:24;6.37;;;2.67;;
5682;SDS011;2864;49.220;8.654;2022-09-03T07:48:52;3.60;;;2.60;;
5682;SDS011;2864;49.220;8.654;2022-09-03T07:51:19;3.30;;;2.93;;
5682;SDS011;2864;49.220;8.654;2022-09-03T07:53:47;6.67;;;3.10;;
5682;SDS011;2864;49.220;8.654;2022-09-03T07:56:16;3.60;;;3.10;;
5682;SDS011;2864;49.220;8.654;2022-09-03T07:58:41;7.70;;;3.67;;
5682;SDS011;2864;49.220;8.654;2022-09-03T08:01:08;5.73;;;3.43;;
5682;SDS011;2864;49.220;8.654;2022-09-03T08:03:34;4.00;;;3.00;;
5682;SDS011;2864;49.220;8.654;2022-09-03T08:06:01;4.47;;;3.47;;
5682;SDS011;2864;49.220;8.654;2022-09-03T08:08:28;6.03;;;3.30;;
5682;SDS011;2864;49.220;8.654;2022-09-03T08:10:54;4.80;;;3.30;;
5682;SDS011;2864;49.220;8.654;2022-09-03T08:13:20;7.50;;;3.97;;
5682;SDS011;2864;49.220;8.654;2022-09-03T08:15:52;6.10;;;3.20;;
5682;SDS011;2864;49.220;8.654;2022-09-03T08:18:19;4.63;;;3.47;;
5682;SDS011;2864;49.220;8.654;2022-09-03T08:20:44;5.33;;;4.20;;
5682;SDS011;2864;49.220;8.654;2022-09-03T08:23:10;10.23;;;4.57;;
5682;SDS011;2864;49.220;8.654;2022-09-03T08:25:36;7.87;;;4.53;;
5682;SDS011;2864;49.220;8.654;2022-09-03T08:28:01;6.37;;;4.50;;
5682;SDS011;2864;49.220;8.654;2022-09-03T08:30:27;7.47;;;4.63;;
5682;SDS011;2864;49.220;8.654;2022-09-03T08:32:53;9.77;;;6.13;;
5682;SDS011;2864;49.220;8.654;2022-09-03T08:35:19;11.53;;;5.80;;
5682;SDS011;2864;49.220;8.654;2022-09-03T08:37:46;4.87;;;4.37;;
5682;SDS011;2864;49.220;8.654;2022-09-03T08:40:15;9.07;;;4.70;;
5682;SDS011;2864;49.220;8.654;2022-09-03T08:42:55;6.33;;;4.70;;
5682;SDS011;2864;49.220;8.654;2022-09-03T08:45:30;4.93;;;4.33;;
5682;SDS011;2864;49.220;8.654;2022-09-03T08:48:00;7.57;;;4.63;;
5682;SDS011;2864;49.220;8.654;2022-09-03T08:50:40;5.77;;;5.10;;
5682;SDS011;2864;49.220;8.654;2022-09-03T08:56:02;8.87;;;5.43;;
5682;SDS011;2864;49.220;8.654;2022-09-03T08:58:32;7.30;;;4.93;;
5682;SDS011;2864;49.220;8.654;2022-09-03T09:06:07;9.10;;;4.70;;
5682;SDS011;2864;49.220;8.654;2022-09-03T09:09:22;6.83;;;5.13;;
5682;SDS011;2864;49.220;8.654;2022-09-03T09:14:40;11.83;;;6.23;;
5682;SDS011;2864;49.220;8.654;2022-09-03T09:17:24;7.27;;;5.47;;
5682;SDS011;2864;49.220;8.654;2022-09-03T09:20:16;6.50;;;3.93;;
5682;SDS011;2864;49.220;8.654;2022-09-03T09:22:56;5.73;;;3.90;;
5682;SDS011;2864;49.220;8.654;2022-09-03T09:25:27;5.60;;;3.20;;
5682;SDS011;2864;49.220;8.654;2022-09-03T09:30:23;5.87;;;3.30;;
5682;SDS011;2864;49.220;8.654;2022-09-03T09:32:50;5.73;;;3.17;;
5682;SDS011;2864;49.220;8.654;2022-09-03T09:35:16;4.70;;;3.30;;
5682;SDS011;2864;49.220;8.654;2022-09-03T09:37:50;4.13;;;3.30;;
5682;SDS011;2864;49.220;8.654;2022-09-03T09:40:49;4.50;;;3.60;;
5682;SDS011;2864;49.220;8.654;2022-09-03T09:43:13;7.27;;;3.23;;
5682;SDS011;2864;49.220;8.654;2022-09-03T09:45:44;4.57;;;3.27;;
5682;SDS011;2864;49.220;8.654;2022-09-03T09:48:14;5.33;;;3.13;;
5682;SDS011;2864;49.220;8.654;2022-09-03T09:50:46;4.13;;;3.30;;
5682;SDS011;2864;49.220;8.654;2022-09-03T09:53:12;4.00;;;3.00;;
5682;SDS011;2864;49.220;8.654;2022-09-03T09:55:55;3.37;;;3.03;;
5682;SDS011;2864;49.220;8.654;2022-09-03T09:58:23;4.57;;;3.33;;
5682;SDS011;2864;49.220;8.654;2022-09-03T10:00:53;4.43;;;2.80;;
5682;SDS011;2864;49.220;8.654;2022-09-03T10:03:38;5.47;;;3.13;;
5682;SDS011;2864;49.220;8.654;2022-09-03T10:06:25;8.43;;;3.50;;
5682;SDS011;2864;49.220;8.654;2022-09-03T10:09:14;3.87;;;3.13;;
5682;SDS011;2864;49.220;8.654;2022-09-03T10:11:45;5.23;;;3.30;;
5682;SDS011;2864;49.220;8.654;2022-09-03T10:14:17;4.63;;;3.37;;
5682;SDS011;2864;49.220;8.654;2022-09-03T10:20:14;4.37;;;3.70;;
5682;SDS011;2864;49.220;8.654;2022-09-03T10:23:00;5.17;;;3.67;;
5682;SDS011;2864;49.220;8.654;2022-09-03T10:28:14;3.50;;;3.20;;
5682;SDS011;2864;49.220;8.654;2022-09-03T10:31:02;9.13;;;3.43;;
5682;SDS011;2864;49.220;8.654;2022-09-03T10:33:48;4.17;;;3.60;;
5682;SDS011;2864;49.220;8.654;2022-09-03T10:36:24;5.50;;;3.37;;
5682;SDS011;2864;49.220;8.654;2022-09-03T10:39:01;4.07;;;3.67;;
5682;SDS011;2864;49.220;8.654;2022-09-03T10:41:38;5.50;;;3.73;;
5682;SDS011;2864;49.220;8.654;2022-09-03T10:44:33;4.20;;;3.37;;
5682;SDS011;2864;49.220;8.654;2022-09-03T10:47:16;3.20;;;2.90;;
5682;SDS011;2864;49.220;8.654;2022-09-03T10:52:37;6.57;;;3.00;;
5682;SDS011;2864;49.220;8.654;2022-09-03T11:00:18;4.80;;;3.30;;
5682;SDS011;2864;49.220;8.654;2022-09-03T11:05:38;6.23;;;3.30;;
5682;SDS011;2864;49.220;8.654;2022-09-03T11:08:34;3.70;;;2.90;;
5682;SDS011;2864;49.220;8.654;2022-09-03T11:11:12;4.10;;;2.90;;
5682;SDS011;2864;49.220;8.654;2022-09-03T11:13:45;4.40;;;3.23;;
5682;SDS011;2864;49.220;8.654;2022-09-03T11:16:19;4.03;;;2.90;;
5682;SDS011;2864;49.220;8.654;2022-09-03T11:18:52;3.90;;;2.80;;
5682;SDS011;2864;49.220;8.654;2022-09-03T11:21:27;4.13;;;2.80;;
5682;SDS011;2864;49.220;8.654;2022-09-03T11:24:06;4.30;;;3.00;;
5682;SDS011;2864;49.220;8.654;2022-09-03T11:26:37;3.73;;;3.00;;
5682;SDS011;2864;49.220;8.654;2022-09-03T11:29:12;5.30;;;2.80;;
5682;SDS011;2864;49.220;8.654;2022-09-03T11:34:27;3.80;;;2.70;;
5682;SDS011;2864;49.220;8.654;2022-09-03T11:37:31;4.33;;;2.67;;
5682;SDS011;2864;49.220;8.654;2022-09-03T11:39:54;3.87;;;2.97;;
5682;SDS011;2864;49.220;8.654;2022-09-03T11:42:36;3.67;;;2.50;;
5682;SDS011;2864;49.220;8.654;2022-09-03T11:47:48;4.13;;;2.70;;
5682;SDS011;2864;49.220;8.654;2022-09-03T11:53:06;3.07;;;2.50;;
5682;SDS011;2864;49.220;8.654;2022-09-03T11:58:25;3.73;;;2.60;;
5682;SDS011;2864;49.220;8.654;2022-09-03T12:00:56;2.67;;;2.40;;
5682;SDS011;2864;49.220;8.654;2022-09-03T12:03:25;4.23;;;2.80;;
5682;SDS011;2864;49.220;8.654;2022-09-03T12:17:50;2.87;;;2.57;;
5682;SDS011;2864;49.220;8.654;2022-09-03T12:20:40;3.57;;;2.80;;
5682;SDS011;2864;49.220;8.654;2022-09-03T12:23:06;5.50;;;2.93;;
5682;SDS011;2864;49.220;8.654;2022-09-03T12:25:35;3.27;;;2.60;;
5682;SDS011;2864;49.220;8.654;2022-09-03T12:28:11;3.00;;;2.67;;
5682;SDS011;2864;49.220;8.654;2022-09-03T12:30:41;5.63;;;2.90;;
5682;SDS011;2864;49.220;8.654;2022-09-03T12:33:07;3.67;;;2.70;;
5682;SDS011;2864;49.220;8.654;2022-09-03T12:35:35;3.07;;;2.73;;
5682;SDS011;2864;49.220;8.654;2022-09-03T12:38:01;3.00;;;2.70;;
5682;SDS011;2864;49.220;8.654;2022-09-03T12:40:27;4.75;;;3.20;;
5682;SDS011;2864;49.220;8.654;2022-09-03T12:42:54;4.97;;;3.37;;
5682;SDS011;2864;49.220;8.654;2022-09-03T12:45:40;4.33;;;3.27;;
5682;SDS011;2864;49.220;8.654;2022-09-03T12:48:15;3.33;;;3.03;;
5682;SDS011;2864;49.220;8.654;2022-09-03T12:50:43;3.53;;;2.63;;
5682;SDS011;2864;49.220;8.654;2022-09-03T12:53:11;6.50;;;3.35;;
5682;SDS011;2864;49.220;8.654;2022-09-03T12:55:50;4.20;;;3.20;;
5682;SDS011;2864;49.220;8.654;2022-09-03T13:01:06;5.18;;;2.88;;
5682;SDS011;2864;49.220;8.654;2022-09-03T13:03:40;3.63;;;3.20;;
5682;SDS011;2864;49.220;8.654;2022-09-03T13:06:13;5.40;;;3.03;;
5682;SDS011;2864;49.220;8.654;2022-09-03T13:08:44;4.57;;;3.20;;
5682;SDS011;2864;49.220;8.654;2022-09-03T13:11:14;4.00;;;2.70;;
5682;SDS011;2864;49.220;8.654;2022-09-03T13:14:16;6.82;;;2.90;;
5682;SDS011;2864;49.220;8.654;2022-09-03T13:16:46;3.00;;;2.70;;
5682;SDS011;2864;49.220;8.654;2022-09-03T13:31:35;3.83;;;3.08;;
5682;SDS011;2864;49.220;8.654;2022-09-03T13:34:05;5.05;;;3.17;;
5682;SDS011;2864;49.220;8.654;2022-09-03T13:36:39;5.97;;;3.47;;
5682;SDS011;2864;49.220;8.654;2022-09-03T13:42:04;3.40;;;3.10;;
5682;SDS011;2864;49.220;8.654;2022-09-03T13:50:15;3.17;;;2.80;;
5682;SDS011;2864;49.220;8.654;2022-09-03T13:52:48;3.17;;;2.72;;
5682;SDS011;2864;49.220;8.654;2022-09-03T13:55:30;5.28;;;3.20;;
5682;SDS011;2864;49.220;8.654;2022-09-03T14:00:37;3.30;;;3.00;;
5682;SDS011;2864;49.220;8.654;2022-09-03T14:20:34;6.43;;;2.53;;
5682;SDS011;2864;49.220;8.654;2022-09-03T14:25:59;3.20;;;2.30;;
5682;SDS011;2864;49.220;8.654;2022-09-03T14:28:35;3.33;;;2.80;;
5682;SDS011;2864;49.220;8.654;2022-09-03T14:31:06;3.42;;;2.70;;
5682;SDS011;2864;49.220;8.654;2022-09-03T14:33:54;2.88;;;2.38;;
5682;SDS011;2864;49.220;8.654;2022-09-03T14:37:13;2.97;;;2.78;;
5682;SDS011;2864;49.220;8.654;2022-09-03T14:41:54;5.72;;;3.25;;
5682;SDS011;2864;49.220;8.654;2022-09-03T14:44:25;3.22;;;2.92;;
5682;SDS011;2864;49.220;8.654;2022-09-03T14:47:18;3.92;;;3.33;;
5682;SDS011;2864;49.220;8.654;2022-09-03T15:01:24;6.00;;;3.63;;
5682;SDS011;2864;49.220;8.654;2022-09-03T15:09:31;4.20;;;3.80;;
5682;SDS011;2864;49.220;8.654;2022-09-03T15:20:51;4.70;;;4.03;;
5682;SDS011;2864;49.220;8.654;2022-09-03T15:23:19;5.50;;;3.77;;
5682;SDS011;2864;49.220;8.654;2022-09-03T15:26:21;4.23;;;3.83;;
5682;SDS011;2864;49.220;8.654;2022-09-03T15:31:43;4.00;;;3.43;;
5682;SDS011;2864;49.220;8.654;2022-09-03T15:36:56;10.20;;;4.33;;
5682;SDS011;2864;49.220;8.654;2022-09-03T15:39:27;7.53;;;5.40;;
5682;SDS011;2864;49.220;8.654;2022-09-03T15:42:09;5.23;;;4.70;;
5682;SDS011;2864;49.220;8.654;2022-09-03T15:44:47;6.40;;;5.80;;
5682;SDS011;2864;49.220;8.654;2022-09-03T15:47:31;10.07;;;7.20;;
5682;SDS011;2864;49.220;8.654;2022-09-03T15:52:58;7.63;;;6.77;;
5682;SDS011;2864;49.220;8.654;2022-09-03T15:55:38;6.43;;;5.50;;
5682;SDS011;2864;49.220;8.654;2022-09-03T16:04:04;4.13;;;3.83;;
5682;SDS011;2864;49.220;8.654;2022-09-03T16:06:46;5.93;;;5.00;;
5682;SDS011;2864;49.220;8.654;2022-09-03T16:09:44;6.67;;;5.50;;
5682;SDS011;2864;49.220;8.654;2022-09-03T16:12:34;5.73;;;4.50;;
5682;SDS011;2864;49.220;8.654;2022-09-03T16:15:14;6.43;;;4.30;;
5682;SDS011;2864;49.220;8.654;2022-09-03T16:20:25;4.90;;;4.40;;
5682;SDS011;2864;49.220;8.654;2022-09-03T16:22:56;5.80;;;4.10;;
5682;SDS011;2864;49.220;8.654;2022-09-03T16:26:04;4.00;;;3.60;;
5682;SDS011;2864;49.220;8.654;2022-09-03T16:28:49;4.00;;;3.60;;
5682;SDS011;2864;49.220;8.654;2022-09-03T16:31:23;5.50;;;4.07;;
5682;SDS011;2864;49.220;8.654;2022-09-03T16:34:08;8.00;;;3.77;;
5682;SDS011;2864;49.220;8.654;2022-09-03T16:36:50;4.80;;;3.80;;
5682;SDS011;2864;49.220;8.654;2022-09-03T16:39:45;4.53;;;4.00;;
5682;SDS011;2864;49.220;8.654;2022-09-03T16:42:24;6.10;;;3.97;;
5682;SDS011;2864;49.220;8.654;2022-09-03T16:45:18;4.40;;;3.90;;
5682;SDS011;2864;49.220;8.654;2022-09-03T16:56:24;3.57;;;3.10;;
5682;SDS011;2864;49.220;8.654;2022-09-03T17:05:02;3.23;;;2.87;;
5682;SDS011;2864;49.220;8.654;2022-09-03T17:21:42;2.70;;;2.50;;
5682;SDS011;2864;49.220;8.654;2022-09-03T17:24:34;4.80;;;2.58;;
5682;SDS011;2864;49.220;8.654;2022-09-03T17:27:10;3.83;;;2.70;;
5682;SDS011;2864;49.220;8.654;2022-09-03T17:30:07;2.78;;;2.30;;
5682;SDS011;2864;49.220;8.654;2022-09-03T17:35:35;3.33;;;2.90;;
5682;SDS011;2864;49.220;8.654;2022-09-03T17:47:04;4.25;;;3.20;;
5682;SDS011;2864;49.220;8.654;2022-09-03T17:49:49;4.33;;;3.00;;
5682;SDS011;2864;49.220;8.654;2022-09-03T17:58:16;4.00;;;2.43;;
5682;SDS011;2864;49.220;8.654;2022-09-03T18:03:54;2.83;;;2.53;;
5682;SDS011;2864;49.220;8.654;2022-09-03T18:11:48;5.50;;;2.60;;
5682;SDS011;2864;49.220;8.654;2022-09-03T18:14:22;3.43;;;2.30;;
5682;SDS011;2864;49.220;8.654;2022-09-03T18:16:58;3.47;;;2.43;;
5682;SDS011;2864;49.220;8.654;2022-09-03T18:19:49;3.60;;;2.90;;
5682;SDS011;2864;49.220;8.654;2022-09-03T18:25:47;2.97;;;2.67;;
5682;SDS011;2864;49.220;8.654;2022-09-03T18:31:53;3.10;;;2.80;;
5682;SDS011;2864;49.220;8.654;2022-09-03T18:34:37;5.83;;;3.00;;
5682;SDS011;2864;49.220;8.654;2022-09-03T18:37:23;4.37;;;3.00;;
5682;SDS011;2864;49.220;8.654;2022-09-03T18:40:11;3.67;;;3.30;;
5682;SDS011;2864;49.220;8.654;2022-09-03T18:43:09;4.90;;;3.50;;
5682;SDS011;2864;49.220;8.654;2022-09-03T18:46:08;4.27;;;3.57;;
5682;SDS011;2864;49.220;8.654;2022-09-03T18:49:16;5.53;;;3.90;;
5682;SDS011;2864;49.220;8.654;2022-09-03T18:52:58;5.83;;;3.90;;
5682;SDS011;2864;49.220;8.654;2022-09-03T19:01:47;6.10;;;4.90;;
5682;SDS011;2864;49.220;8.654;2022-09-03T19:04:51;6.53;;;5.30;;
5682;SDS011;2864;49.220;8.654;2022-09-03T19:13:51;7.87;;;5.77;;
5682;SDS011;2864;49.220;8.654;2022-09-03T19:19:55;7.80;;;5.60;;
5682;SDS011;2864;49.220;8.654;2022-09-03T19:22:47;7.20;;;6.50;;
5682;SDS011;2864;49.220;8.654;2022-09-03T19:25:31;9.93;;;6.57;;
5682;SDS011;2864;49.220;8.654;2022-09-03T19:28:20;9.97;;;7.00;;
5682;SDS011;2864;49.220;8.654;2022-09-03T19:46:38;6.53;;;5.93;;
5682;SDS011;2864;49.220;8.654;2022-09-03T19:49:40;7.70;;;5.70;;
5682;SDS011;2864;49.220;8.654;2022-09-03T19:52:40;7.00;;;5.87;;
5682;SDS011;2864;49.220;8.654;2022-09-03T19:55:34;7.70;;;6.30;;
5682;SDS011;2864;49.220;8.654;2022-09-03T19:58:23;5.93;;;5.43;;
5682;SDS011;2864;49.220;8.654;2022-09-03T20:01:12;5.90;;;5.40;;
5682;SDS011;2864;49.220;8.654;2022-09-03T20:03:58;6.73;;;5.20;;
5682;SDS011;2864;49.220;8.654;2022-09-03T20:06:58;5.67;;;5.17;;
5682;SDS011;2864;49.220;8.654;2022-09-03T20:09:46;6.67;;;4.90;;
5682;SDS011;2864;49.220;8.654;2022-09-03T20:12:33;5.80;;;4.90;;
5682;SDS011;2864;49.220;8.654;2022-09-03T20:15:03;5.60;;;4.93;;
5682;SDS011;2864;49.220;8.654;2022-09-03T20:17:36;4.90;;;4.50;;
5682;SDS011;2864;49.220;8.654;2022-09-03T20:23:11;5.80;;;5.00;;
5682;SDS011;2864;49.220;8.654;2022-09-03T20:29:19;8.50;;;4.83;;
5682;SDS011;2864;49.220;8.654;2022-09-03T20:40:28;5.30;;;3.80;;
5682;SDS011;2864;49.220;8.654;2022-09-03T20:45:37;4.43;;;3.73;;
5682;SDS011;2864;49.220;8.654;2022-09-03T20:48:30;5.63;;;4.23;;
5682;SDS011;2864;49.220;8.654;2022-09-03T20:51:15;5.17;;;3.60;;
5682;SDS011;2864;49.220;8.654;2022-09-03T20:54:08;7.17;;;3.90;;
5682;SDS011;2864;49.220;8.654;2022-09-03T20:59:46;5.43;;;4.20;;
5682;SDS011;2864;49.220;8.654;2022-09-03T21:02:32;6.07;;;4.33;;
5682;SDS011;2864;49.220;8.654;2022-09-03T21:06:06;8.23;;;4.60;;
5682;SDS011;2864;49.220;8.654;2022-09-03T21:14:26;5.43;;;4.13;;
5682;SDS011;2864;49.220;8.654;2022-09-03T21:25:06;6.60;;;5.27;;
5682;SDS011;2864;49.220;8.654;2022-09-03T21:27:40;6.37;;;4.73;;
5682;SDS011;2864;49.220;8.654;2022-09-03T21:30:17;7.83;;;5.10;;
5682;SDS011;2864;49.220;8.654;2022-09-03T21:32:51;7.17;;;5.10;;